AAL132 KDCA-KLGA
Flight info
| Callsign | AAL132 |
|---|---|
| Flight time | 0h 41m |
| Altitude | 17000 |
| Route | DOCTR5 AGARD SPEAK PROUD2 |
| Aircraft | B738/M-SDE2E3FGHIRWXY/LB1 |
Departure
| Time | 2026-05-06 18:23 |
|---|---|
| Airport | Ronald Reagan Washington National Airport (KDCA) |
Arrival
| Time | 2026-05-06 19:04 |
|---|---|
| Airport | LaGuardia Airport (KLGA) |
| Time | Latitude | Longitude | Altitude | Speed | Heading |
|---|---|---|---|---|---|
| 2026-05-06 17:41 | 38.85364 | -77.04103 | 24 ft | 0 kts | 309° |
| 2026-05-06 18:16 | 38.85357 | -77.04093 | 29 ft | 4 kts | 314° |
| 2026-05-06 18:16 | 38.85337 | -77.04076 | 25 ft | 4 kts | 1° |
| 2026-05-06 18:17 | 38.85322 | -77.04085 | 24 ft | 2 kts | 71° |
| 2026-05-06 18:17 | 38.85322 | -77.04086 | 24 ft | 1 kts | 71° |
| 2026-05-06 18:20 | 38.85331 | -77.04051 | 27 ft | 8 kts | 74° |
| 2026-05-06 18:20 | 38.85377 | -77.03998 | 23 ft | 14 kts | 16° |
| 2026-05-06 18:20 | 38.85511 | -77.04018 | 27 ft | 26 kts | 349° |
| 2026-05-06 18:20 | 38.85685 | -77.04045 | 28 ft | 23 kts | 355° |
| 2026-05-06 18:21 | 38.85843 | -77.04062 | 30 ft | 22 kts | 355° |
| 2026-05-06 18:21 | 38.85992 | -77.04037 | 27 ft | 22 kts | 22° |
| 2026-05-06 18:21 | 38.86077 | -77.03967 | 27 ft | 0 kts | 81° |
| 2026-05-06 18:22 | 38.86070 | -77.03884 | 24 ft | 8 kts | 158° |
| 2026-05-06 18:22 | 38.86033 | -77.03866 | 23 ft | 0 kts | 174° |
| 2026-05-06 18:22 | 38.85889 | -77.03853 | 27 ft | 59 kts | 178° |
| 2026-05-06 18:22 | 38.85253 | -77.03789 | 21 ft | 122 kts | 175° |
| 2026-05-06 18:23 | 38.84265 | -77.03670 | 209 ft | 155 kts | 178° |
| 2026-05-06 18:23 | 38.83155 | -77.03518 | 740 ft | 169 kts | 175° |
| 2026-05-06 18:23 | 38.81956 | -77.03281 | 1433 ft | 175 kts | 176° |
| 2026-05-06 18:23 | 38.80743 | -77.03025 | 2248 ft | 185 kts | 176° |
| 2026-05-06 18:24 | 38.79367 | -77.02736 | 2489 ft | 216 kts | 176° |
| 2026-05-06 18:24 | 38.77836 | -77.02405 | 2970 ft | 230 kts | 175° |
| 2026-05-06 18:24 | 38.76311 | -77.01595 | 3645 ft | 252 kts | 147° |
| 2026-05-06 18:24 | 38.75224 | -76.99675 | 4146 ft | 289 kts | 112° |
| 2026-05-06 18:25 | 38.75002 | -76.97049 | 4886 ft | 302 kts | 89° |
| 2026-05-06 18:25 | 38.75079 | -76.94361 | 5813 ft | 305 kts | 83° |
| 2026-05-06 18:25 | 38.75817 | -76.91806 | 6511 ft | 309 kts | 50° |
| 2026-05-06 18:25 | 38.77345 | -76.89901 | 7342 ft | 306 kts | 30° |
| 2026-05-06 18:26 | 38.79144 | -76.88483 | 8064 ft | 310 kts | 24° |
| 2026-05-06 18:26 | 38.81026 | -76.87097 | 8928 ft | 314 kts | 25° |
| 2026-05-06 18:26 | 38.82937 | -76.85662 | 9679 ft | 322 kts | 25° |
| 2026-05-06 18:26 | 38.84876 | -76.84175 | 10375 ft | 330 kts | 26° |
| 2026-05-06 18:27 | 38.86687 | -76.82184 | 10589 ft | 363 kts | 52° |
| 2026-05-06 18:27 | 38.87925 | -76.79258 | 10799 ft | 387 kts | 64° |
| 2026-05-06 18:27 | 38.89090 | -76.76033 | 11224 ft | 402 kts | 64° |
| 2026-05-06 18:27 | 38.90273 | -76.72738 | 11816 ft | 410 kts | 64° |
| 2026-05-06 18:28 | 38.91490 | -76.69406 | 12503 ft | 414 kts | 63° |
| 2026-05-06 18:28 | 38.92737 | -76.66054 | 13217 ft | 418 kts | 63° |
| 2026-05-06 18:28 | 38.94009 | -76.62659 | 13860 ft | 424 kts | 63° |
| 2026-05-06 18:28 | 38.95262 | -76.59216 | 14462 ft | 429 kts | 65° |
| 2026-05-06 18:29 | 38.96423 | -76.55670 | 15055 ft | 433 kts | 66° |
| 2026-05-06 18:29 | 38.97559 | -76.52059 | 15664 ft | 438 kts | 66° |
| 2026-05-06 18:29 | 38.98714 | -76.48422 | 16290 ft | 440 kts | 66° |
| 2026-05-06 18:29 | 38.99893 | -76.44772 | 16923 ft | 444 kts | 65° |
| 2026-05-06 18:30 | 39.01037 | -76.41064 | 17522 ft | 450 kts | 72° |
| 2026-05-06 18:30 | 39.01645 | -76.37087 | 18053 ft | 456 kts | 83° |
| 2026-05-06 18:30 | 39.02001 | -76.33024 | 18573 ft | 460 kts | 84° |
| 2026-05-06 18:30 | 39.02325 | -76.28952 | 19051 ft | 464 kts | 84° |
| 2026-05-06 18:31 | 39.02675 | -76.24812 | 19540 ft | 469 kts | 84° |
| 2026-05-06 18:31 | 39.03060 | -76.20632 | 20016 ft | 473 kts | 83° |
| 2026-05-06 18:31 | 39.03472 | -76.16401 | 20482 ft | 478 kts | 83° |
| 2026-05-06 18:31 | 39.03895 | -76.12140 | 20925 ft | 482 kts | 83° |
| 2026-05-06 18:32 | 39.04319 | -76.07851 | 21414 ft | 486 kts | 83° |
| 2026-05-06 18:32 | 39.04660 | -76.03500 | 21858 ft | 490 kts | 86° |
| 2026-05-06 18:32 | 39.04853 | -75.99102 | 22326 ft | 495 kts | 88° |
| 2026-05-06 18:32 | 39.04995 | -75.94669 | 22763 ft | 499 kts | 89° |
| 2026-05-06 18:33 | 39.05144 | -75.90193 | 23217 ft | 502 kts | 88° |
| 2026-05-06 18:33 | 39.05323 | -75.85692 | 23698 ft | 503 kts | 87° |
| 2026-05-06 18:33 | 39.05536 | -75.81244 | 23872 ft | 509 kts | 84° |
| 2026-05-06 18:33 | 39.06280 | -75.76770 | 23876 ft | 515 kts | 68° |
| 2026-05-06 18:34 | 39.07762 | -75.72570 | 23883 ft | 517 kts | 56° |
| 2026-05-06 18:34 | 39.09863 | -75.68852 | 23870 ft | 510 kts | 41° |
| 2026-05-06 18:34 | 39.12360 | -75.65625 | 23883 ft | 507 kts | 38° |
| 2026-05-06 18:34 | 39.14894 | -75.62447 | 23893 ft | 508 kts | 38° |
| 2026-05-06 18:35 | 39.17405 | -75.59240 | 23874 ft | 509 kts | 39° |
| 2026-05-06 18:35 | 39.19894 | -75.55974 | 23866 ft | 509 kts | 40° |
| 2026-05-06 18:35 | 39.22355 | -75.52701 | 23869 ft | 508 kts | 40° |
| 2026-05-06 18:35 | 39.24949 | -75.49655 | 23862 ft | 499 kts | 30° |
| 2026-05-06 18:36 | 39.27775 | -75.47105 | 23868 ft | 493 kts | 26° |
| 2026-05-06 18:36 | 39.30648 | -75.44697 | 23864 ft | 492 kts | 25° |
| 2026-05-06 18:36 | 39.33521 | -75.42300 | 23881 ft | 491 kts | 26° |
| 2026-05-06 18:36 | 39.36376 | -75.39865 | 23879 ft | 493 kts | 27° |
| 2026-05-06 18:37 | 39.39197 | -75.37395 | 23862 ft | 483 kts | 27° |
| 2026-05-06 18:37 | 39.41024 | -75.35770 | 23597 ft | 479 kts | 27° |
| 2026-05-06 18:37 | 39.44659 | -75.32514 | 22903 ft | 472 kts | 28° |
| 2026-05-06 18:37 | 39.47315 | -75.30138 | 22375 ft | 467 kts | 28° |
| 2026-05-06 18:38 | 39.50009 | -75.27731 | 21828 ft | 462 kts | 28° |
| 2026-05-06 18:38 | 39.52602 | -75.25383 | 21314 ft | 459 kts | 29° |
| 2026-05-06 18:38 | 39.55177 | -75.22979 | 20811 ft | 455 kts | 30° |
| 2026-05-06 18:38 | 39.57745 | -75.20553 | 20285 ft | 452 kts | 30° |
| 2026-05-06 18:39 | 39.60276 | -75.18159 | 19768 ft | 449 kts | 30° |
| 2026-05-06 18:39 | 39.62793 | -75.15788 | 19236 ft | 446 kts | 30° |
| 2026-05-06 18:39 | 39.65302 | -75.13430 | 18713 ft | 443 kts | 30° |
| 2026-05-06 18:40 | 39.70319 | -75.08820 | 17627 ft | 437 kts | 28° |
| 2026-05-06 18:40 | 39.72852 | -75.06663 | 17096 ft | 435 kts | 27° |
| 2026-05-06 18:40 | 39.75379 | -75.04535 | 16528 ft | 432 kts | 27° |
| 2026-05-06 18:40 | 39.77854 | -75.02436 | 16041 ft | 428 kts | 28° |
| 2026-05-06 18:41 | 39.80322 | -75.00322 | 15636 ft | 422 kts | 28° |
| 2026-05-06 18:41 | 39.82787 | -74.98196 | 15144 ft | 418 kts | 28° |
| 2026-05-06 18:41 | 39.85178 | -74.96128 | 14655 ft | 416 kts | 29° |
| 2026-05-06 18:41 | 39.87555 | -74.94002 | 14167 ft | 414 kts | 31° |
| 2026-05-06 18:42 | 39.89919 | -74.91846 | 13648 ft | 412 kts | 31° |
| 2026-05-06 18:42 | 39.92265 | -74.89676 | 13111 ft | 412 kts | 34° |
| 2026-05-06 18:42 | 39.94342 | -74.87102 | 12573 ft | 413 kts | 46° |
| 2026-05-06 18:42 | 39.96193 | -74.84312 | 12080 ft | 410 kts | 47° |
| 2026-05-06 18:43 | 39.98044 | -74.81503 | 11581 ft | 407 kts | 47° |
| 2026-05-06 18:43 | 39.99910 | -74.78753 | 11083 ft | 404 kts | 46° |
| 2026-05-06 18:43 | 40.01789 | -74.76049 | 10612 ft | 398 kts | 45° |
| 2026-05-06 18:43 | 40.03624 | -74.73424 | 10185 ft | 385 kts | 45° |
| 2026-05-06 18:44 | 40.05384 | -74.70904 | 10046 ft | 369 kts | 45° |
| 2026-05-06 18:44 | 40.07082 | -74.68466 | 10035 ft | 355 kts | 45° |
| 2026-05-06 18:44 | 40.08706 | -74.66130 | 10013 ft | 343 kts | 45° |
| 2026-05-06 18:44 | 40.10285 | -74.63859 | 10007 ft | 333 kts | 45° |
| 2026-05-06 18:45 | 40.11832 | -74.61628 | 9985 ft | 327 kts | 45° |
| 2026-05-06 18:45 | 40.13356 | -74.59437 | 9989 ft | 327 kts | 45° |
| 2026-05-06 18:45 | 40.14890 | -74.57233 | 10021 ft | 336 kts | 45° |
| 2026-05-06 18:45 | 40.15954 | -74.55701 | 10009 ft | 339 kts | 45° |
| 2026-05-06 18:46 | 40.18043 | -74.52685 | 9992 ft | 337 kts | 45° |
| 2026-05-06 18:46 | 40.19616 | -74.50413 | 9993 ft | 336 kts | 45° |
| 2026-05-06 18:46 | 40.21216 | -74.48186 | 10001 ft | 334 kts | 41° |
| 2026-05-06 18:46 | 40.22888 | -74.46086 | 10011 ft | 333 kts | 40° |
| 2026-05-06 18:47 | 40.24576 | -74.44004 | 10013 ft | 333 kts | 40° |
| 2026-05-06 18:47 | 40.25688 | -74.42622 | 10019 ft | 334 kts | 40° |
| 2026-05-06 18:47 | 40.27368 | -74.40515 | 10006 ft | 336 kts | 40° |
| 2026-05-06 18:47 | 40.29060 | -74.38381 | 9750 ft | 340 kts | 41° |
| 2026-05-06 18:48 | 40.30761 | -74.36228 | 9266 ft | 338 kts | 41° |
| 2026-05-06 18:48 | 40.32434 | -74.34108 | 8782 ft | 334 kts | 41° |
| 2026-05-06 18:48 | 40.34100 | -74.31997 | 8333 ft | 330 kts | 41° |
| 2026-05-06 18:48 | 40.35738 | -74.29922 | 7890 ft | 326 kts | 41° |
| 2026-05-06 18:49 | 40.37359 | -74.27865 | 7442 ft | 323 kts | 41° |
| 2026-05-06 18:49 | 40.38958 | -74.25836 | 7077 ft | 317 kts | 42° |
| 2026-05-06 18:49 | 40.40518 | -74.23853 | 7002 ft | 308 kts | 42° |
| 2026-05-06 18:49 | 40.42066 | -74.21886 | 7009 ft | 312 kts | 42° |
| 2026-05-06 18:50 | 40.43638 | -74.19888 | 7013 ft | 315 kts | 42° |
| 2026-05-06 18:50 | 40.45216 | -74.17880 | 7002 ft | 314 kts | 42° |
| 2026-05-06 18:50 | 40.46780 | -74.15886 | 7008 ft | 312 kts | 42° |
| 2026-05-06 18:50 | 40.48333 | -74.13907 | 7008 ft | 311 kts | 43° |
| 2026-05-06 18:51 | 40.49907 | -74.11901 | 6621 ft | 321 kts | 43° |
| 2026-05-06 18:51 | 40.51485 | -74.09891 | 6198 ft | 318 kts | 42° |
| 2026-05-06 18:51 | 40.53182 | -74.08103 | 5723 ft | 312 kts | 27° |
| 2026-05-06 18:51 | 40.55119 | -74.06887 | 5287 ft | 305 kts | 19° |
| 2026-05-06 18:52 | 40.57066 | -74.05839 | 4857 ft | 302 kts | 18° |
| 2026-05-06 18:52 | 40.59013 | -74.04814 | 4403 ft | 299 kts | 18° |
| 2026-05-06 18:52 | 40.60931 | -74.03817 | 4050 ft | 293 kts | 17° |
| 2026-05-06 18:52 | 40.62786 | -74.02850 | 4015 ft | 286 kts | 17° |
| 2026-05-06 18:53 | 40.64639 | -74.01889 | 4009 ft | 285 kts | 17° |
| 2026-05-06 18:53 | 40.66500 | -74.00929 | 4022 ft | 289 kts | 18° |
| 2026-05-06 18:53 | 40.68360 | -73.99987 | 4012 ft | 290 kts | 17° |
| 2026-05-06 18:53 | 40.70247 | -73.99030 | 4003 ft | 290 kts | 18° |
| 2026-05-06 18:54 | 40.72137 | -73.98076 | 4009 ft | 290 kts | 17° |
| 2026-05-06 18:54 | 40.74001 | -73.97133 | 4017 ft | 290 kts | 17° |
| 2026-05-06 18:54 | 40.75911 | -73.96168 | 4015 ft | 290 kts | 17° |
| 2026-05-06 18:54 | 40.77708 | -73.95259 | 3995 ft | 291 kts | 17° |
| 2026-05-06 18:55 | 40.79604 | -73.94296 | 3983 ft | 292 kts | 18° |
| 2026-05-06 18:55 | 40.81530 | -73.93327 | 3569 ft | 300 kts | 17° |
| 2026-05-06 18:55 | 40.83475 | -73.92350 | 3149 ft | 296 kts | 18° |
| 2026-05-06 18:55 | 40.85370 | -73.91396 | 3032 ft | 287 kts | 18° |
| 2026-05-06 18:56 | 40.87206 | -73.90477 | 2971 ft | 276 kts | 17° |
| 2026-05-06 18:56 | 40.88955 | -73.89589 | 2980 ft | 267 kts | 17° |
| 2026-05-06 18:56 | 40.90682 | -73.88710 | 2990 ft | 265 kts | 17° |
| 2026-05-06 18:56 | 40.92376 | -73.87764 | 2975 ft | 265 kts | 29° |
| 2026-05-06 18:57 | 40.93839 | -73.86274 | 3016 ft | 264 kts | 38° |
| 2026-05-06 18:57 | 40.95258 | -73.84745 | 3030 ft | 261 kts | 37° |
| 2026-05-06 18:57 | 40.96657 | -73.83244 | 2970 ft | 262 kts | 37° |
| 2026-05-06 18:57 | 40.98110 | -73.81690 | 2565 ft | 271 kts | 37° |
| 2026-05-06 18:58 | 40.99413 | -73.79920 | 2167 ft | 266 kts | 59° |
| 2026-05-06 18:58 | 40.99905 | -73.77734 | 2025 ft | 241 kts | 93° |
| 2026-05-06 18:58 | 40.99542 | -73.75679 | 2018 ft | 228 kts | 118° |
| 2026-05-06 18:58 | 40.98859 | -73.73795 | 2004 ft | 225 kts | 130° |
| 2026-05-06 18:59 | 40.97675 | -73.72677 | 2009 ft | 202 kts | 173° |
| 2026-05-06 18:59 | 40.96408 | -73.72892 | 2008 ft | 172 kts | 208° |
| 2026-05-06 18:59 | 40.95371 | -73.73543 | 1994 ft | 160 kts | 207° |
| 2026-05-06 18:59 | 40.94364 | -73.74155 | 2012 ft | 161 kts | 208° |
| 2026-05-06 19:00 | 40.93351 | -73.74859 | 2017 ft | 166 kts | 212° |
| 2026-05-06 19:00 | 40.92343 | -73.75645 | 2000 ft | 168 kts | 213° |
| 2026-05-06 19:00 | 40.91360 | -73.76444 | 1970 ft | 165 kts | 213° |
| 2026-05-06 19:00 | 40.90397 | -73.77238 | 1989 ft | 159 kts | 215° |
| 2026-05-06 19:01 | 40.89479 | -73.77997 | 2018 ft | 149 kts | 215° |
| 2026-05-06 19:01 | 40.88629 | -73.78702 | 1983 ft | 139 kts | 214° |
| 2026-05-06 19:01 | 40.87814 | -73.79378 | 1981 ft | 137 kts | 215° |
| 2026-05-06 19:01 | 40.87011 | -73.80045 | 1947 ft | 139 kts | 215° |
| 2026-05-06 19:02 | 40.86201 | -73.80717 | 1795 ft | 139 kts | 214° |
| 2026-05-06 19:02 | 40.85393 | -73.81387 | 1627 ft | 138 kts | 215° |
| 2026-05-06 19:02 | 40.84570 | -73.82070 | 1435 ft | 140 kts | 214° |
| 2026-05-06 19:02 | 40.83741 | -73.82757 | 1247 ft | 141 kts | 213° |
| 2026-05-06 19:03 | 40.82916 | -73.83442 | 1053 ft | 139 kts | 213° |
| 2026-05-06 19:03 | 40.82098 | -73.84119 | 848 ft | 140 kts | 212° |
| 2026-05-06 19:03 | 40.81253 | -73.84819 | 674 ft | 149 kts | 213° |
| 2026-05-06 19:03 | 40.80380 | -73.85541 | 482 ft | 145 kts | 212° |
| 2026-05-06 19:04 | 40.79518 | -73.86259 | 293 ft | 154 kts | 212° |
| 2026-05-06 19:04 | 40.78611 | -73.87012 | 79 ft | 149 kts | 212° |
| 2026-05-06 19:04 | 40.77796 | -73.87672 | 19 ft | 119 kts | 211° |
| 2026-05-06 19:04 | 40.77424 | -73.87988 | 19 ft | 14 kts | 213° |
| 2026-05-06 19:05 | 40.77351 | -73.88050 | 21 ft | 24 kts | 212° |
| 2026-05-06 19:05 | 40.77217 | -73.88161 | 19 ft | 22 kts | 212° |
| 2026-05-06 19:05 | 40.77102 | -73.88234 | 19 ft | 12 kts | 180° |
| 2026-05-06 19:05 | 40.77061 | -73.88162 | 19 ft | 11 kts | 67° |
| 2026-05-06 19:06 | 40.77100 | -73.88112 | 19 ft | 6 kts | 36° |
| 2026-05-06 19:06 | 40.77135 | -73.88080 | 19 ft | 6 kts | 32° |
| 2026-05-06 19:06 | 40.77191 | -73.88035 | 19 ft | 15 kts | 31° |
| 2026-05-06 19:06 | 40.77282 | -73.87962 | 19 ft | 15 kts | 31° |
| 2026-05-06 19:07 | 40.77370 | -73.87889 | 21 ft | 15 kts | 35° |
| 2026-05-06 19:07 | 40.77454 | -73.87817 | 21 ft | 14 kts | 32° |
| 2026-05-06 19:07 | 40.77531 | -73.87744 | 20 ft | 13 kts | 59° |
| 2026-05-06 19:07 | 40.77534 | -73.87626 | 20 ft | 13 kts | 93° |
| 2026-05-06 19:08 | 40.77531 | -73.87510 | 20 ft | 13 kts | 96° |
| 2026-05-06 19:08 | 40.77528 | -73.87484 | 20 ft | 0 kts | 101° |
| 2026-05-06 19:09 | 40.77522 | -73.87443 | 20 ft | 5 kts | 101° |
| 2026-05-06 19:09 | 40.77522 | -73.87441 | 20 ft | 0 kts | 101° |